createdAt,value
2022-09-01T00:00:23.688Z,68.62
2022-09-01T00:05:27.089Z,70.49
2022-09-01T00:10:30.780Z,72.31
2022-09-01T00:15:36.098Z,73.49
2022-09-01T00:20:39.763Z,74.84
2022-09-01T00:25:43.230Z,76.23
2022-09-01T00:30:46.258Z,77.11
2022-09-01T00:35:49.231Z,78.45
2022-09-01T00:40:52.472Z,79.31
2022-09-01T00:45:57.961Z,80.04
2022-09-01T00:51:04.170Z,80.87
2022-09-01T00:56:09.521Z,81.66
2022-09-01T01:01:14.772Z,82.52
2022-09-01T01:06:19.448Z,83.50
2022-09-01T01:11:22.579Z,84.33
2022-09-01T01:16:28.536Z,85.26
2022-09-01T01:22:02.729Z,86.00
2022-09-01T01:27:07.068Z,86.38
2022-09-01T01:32:13.439Z,86.85
2022-09-01T01:37:16.351Z,87.60
2022-09-01T01:42:19.536Z,88.25
2022-09-01T01:47:22.461Z,88.71
2022-09-01T01:52:26.151Z,89.32
2022-09-01T01:57:33.143Z,89.87
2022-09-01T02:02:38.320Z,90.08
2022-09-01T02:07:43.101Z,90.71
2022-09-01T02:12:46.487Z,91.39
2022-09-01T02:17:49.808Z,91.58
2022-09-01T02:22:55.617Z,91.69
2022-09-01T02:28:00.625Z,92.20
2022-09-01T02:33:05.065Z,92.55
2022-09-01T02:38:08.850Z,92.64
2022-09-01T02:43:13.593Z,93.01
2022-09-01T02:48:17.893Z,93.13
2022-09-01T02:53:23.107Z,93.68
2022-09-01T02:58:28.369Z,94.16
2022-09-01T03:03:31.368Z,94.18
2022-09-01T03:08:36.710Z,94.74
2022-09-01T03:13:41.464Z,95.00
2022-09-01T03:18:44.810Z,95.00
2022-09-01T03:23:50.465Z,95.48
2022-09-01T03:28:54.020Z,95.89
2022-09-01T03:33:57.184Z,96.28
2022-09-01T03:39:01.311Z,96.50
2022-09-01T03:44:04.407Z,96.57
2022-09-01T03:49:08.210Z,96.98
2022-09-01T03:54:11.272Z,97.02
2022-09-01T03:59:17.372Z,97.42
2022-09-01T04:04:20.465Z,97.52
2022-09-01T04:09:23.402Z,97.83
2022-09-01T04:14:27.698Z,97.96
2022-09-01T04:19:39.655Z,98.10
2022-09-01T04:24:46.615Z,98.39
2022-09-01T04:29:50.247Z,98.58
2022-09-01T04:34:53.121Z,99.00
2022-09-01T04:39:57.677Z,98.92
2022-09-01T04:45:02.060Z,99.48
2022-09-01T04:50:15.064Z,99.64
2022-09-01T04:55:18.309Z,99.71
2022-09-01T05:00:23.680Z,100.00
2022-09-01T05:05:27.534Z,100.00
2022-09-01T05:10:31.689Z,100.00
2022-09-01T05:15:35.641Z,100.00
2022-09-01T05:20:42.120Z,100.00
2022-09-01T05:25:46.958Z,100.00
2022-09-01T05:30:54.135Z,100.00
2022-09-01T05:36:02.314Z,100.00
2022-09-01T05:41:09.017Z,100.00
2022-09-01T05:46:13.657Z,100.00
2022-09-01T05:51:43.216Z,100.00
2022-09-01T05:56:46.195Z,100.00
2022-09-01T06:01:50.529Z,100.00
2022-09-01T06:07:06.622Z,100.00
2022-09-01T06:12:18.184Z,100.00
2022-09-01T06:17:25.534Z,100.00
2022-09-01T06:22:29.443Z,100.00
2022-09-01T06:27:34.564Z,100.00
2022-09-01T06:32:38.642Z,100.00
2022-09-01T06:37:46.156Z,100.00
2022-09-01T06:42:51.655Z,100.00
2022-09-01T06:47:57.764Z,100.00
2022-09-01T06:58:35.009Z,100.00
2022-09-01T07:03:39.553Z,100.00
2022-09-01T07:14:16.319Z,100.00
2022-09-01T07:19:19.394Z,100.00
2022-09-01T07:24:26.637Z,100.00
2022-09-01T07:29:35.469Z,100.00
2022-09-01T07:34:39.890Z,100.00
2022-09-01T07:39:48.606Z,100.00
2022-09-01T07:44:53.251Z,100.00
2022-09-01T07:50:25.009Z,100.00
2022-09-01T07:55:19.416Z,100.00
2022-09-01T08:00:22.484Z,100.00
2022-09-01T08:05:27.165Z,100.00
2022-09-01T08:10:30.286Z,100.00
2022-09-01T08:16:06.430Z,100.00
2022-09-01T08:20:56.342Z,100.00
2022-09-01T08:25:59.205Z,100.00
2022-09-01T08:31:18.132Z,100.00
2022-09-01T08:36:24.806Z,100.00
2022-09-01T08:41:50.589Z,100.00
2022-09-01T08:47:08.755Z,100.00
2022-09-01T08:52:30.951Z,100.00
2022-09-01T08:57:36.884Z,100.00
2022-09-01T09:03:18.597Z,100.00
2022-09-01T09:09:03.907Z,100.00
2022-09-01T09:14:31.547Z,100.00
2022-09-01T09:19:42.708Z,100.00
2022-09-01T09:24:56.355Z,100.00
2022-09-01T09:30:08.024Z,99.28
2022-09-01T09:35:33.212Z,97.49
2022-09-01T09:40:53.193Z,96.26
2022-09-01T09:46:38.775Z,95.86
2022-09-01T09:51:45.622Z,92.27
2022-09-01T09:57:03.439Z,84.49
2022-09-01T10:02:42.357Z,75.25
2022-09-01T10:07:45.622Z,71.93
2022-09-01T10:12:48.492Z,73.58
2022-09-01T10:18:14.047Z,73.45
2022-09-01T10:23:18.919Z,72.32
2022-09-01T10:28:24.596Z,66.46
2022-09-01T10:33:28.749Z,63.11
2022-09-01T10:38:32.149Z,63.42
2022-09-01T10:43:44.316Z,62.74
2022-09-01T10:49:02.738Z,63.75
2022-09-01T10:54:07.408Z,57.38
2022-09-01T10:59:33.418Z,55.28
2022-09-01T11:04:40.045Z,56.26
2022-09-01T11:10:11.013Z,52.31
2022-09-01T11:15:14.540Z,51.99
2022-09-01T11:20:38.788Z,52.06
2022-09-01T11:26:18.673Z,50.47
2022-09-01T11:31:35.540Z,47.23
2022-09-01T11:36:47.307Z,48.43
2022-09-01T11:42:19.008Z,47.21
2022-09-01T11:47:26.786Z,49.34
2022-09-01T11:52:38.397Z,52.94
2022-09-01T11:57:41.685Z,48.59
2022-09-01T12:02:51.612Z,47.33
2022-09-01T12:07:55.889Z,45.48
2022-09-01T12:13:04.636Z,46.79
2022-09-01T12:18:24.611Z,47.68
2022-09-01T12:23:43.251Z,48.34
2022-09-01T12:28:49.718Z,44.92
2022-09-01T12:33:56.230Z,44.51
2022-09-01T12:39:17.990Z,39.51
2022-09-01T12:44:37.259Z,40.85
2022-09-01T12:49:50.143Z,44.27
2022-09-01T12:55:00.163Z,43.78
2022-09-01T13:00:32.699Z,43.92
2022-09-01T13:05:42.333Z,42.21
2022-09-01T13:11:11.253Z,41.06
2022-09-01T13:16:15.567Z,40.57
2022-09-01T13:21:18.512Z,41.58
2022-09-01T13:26:21.604Z,39.70
2022-09-01T13:31:32.203Z,40.19
2022-09-01T13:36:45.445Z,40.32
2022-09-01T13:41:51.488Z,39.96
2022-09-01T13:52:18.714Z,43.09
2022-09-01T13:57:22.268Z,42.43
2022-09-01T14:02:26.495Z,42.22
2022-09-01T14:07:30.132Z,43.25
2022-09-01T14:12:33.086Z,42.70
2022-09-01T14:17:38.399Z,40.99
2022-09-01T14:22:41.975Z,38.83
2022-09-01T14:27:45.717Z,38.22
2022-09-01T14:32:52.573Z,38.92
2022-09-01T14:37:56.429Z,38.27
2022-09-01T14:42:59.655Z,40.35
2022-09-01T14:48:02.785Z,41.31
2022-09-01T14:53:05.938Z,41.33
2022-09-01T14:58:08.912Z,42.57
2022-09-01T15:03:11.910Z,44.09
2022-09-01T15:08:17.755Z,43.26
2022-09-01T15:13:21.002Z,43.30
2022-09-01T15:18:23.970Z,42.47
2022-09-01T15:23:27.158Z,41.19
2022-09-01T15:28:30.195Z,40.51
2022-09-01T15:33:33.060Z,41.30
2022-09-01T15:38:36.502Z,42.32
2022-09-01T15:43:40.098Z,42.70
2022-09-01T15:48:45.950Z,44.41
2022-09-01T15:53:55.621Z,44.18
2022-09-01T15:59:01.477Z,44.51
2022-09-01T16:04:08.088Z,43.23
2022-09-01T16:09:12.615Z,44.65
2022-09-01T16:14:16.114Z,44.45
2022-09-01T16:19:45.453Z,44.81
2022-09-01T16:24:54.384Z,48.37
2022-09-01T16:30:04.136Z,50.82
2022-09-01T16:35:07.446Z,52.05
2022-09-01T16:40:57.991Z,51.60
2022-09-01T16:46:36.022Z,52.98
2022-09-01T16:52:07.335Z,54.26
2022-09-01T16:57:46.265Z,55.43
2022-09-01T17:02:52.704Z,56.02
2022-09-01T17:08:21.666Z,57.31
2022-09-01T17:13:38.217Z,59.12
2022-09-01T17:18:51.338Z,60.89
2022-09-01T17:24:22.426Z,60.77
2022-09-01T17:29:46.973Z,60.94
2022-09-01T17:35:04.037Z,61.52
2022-09-01T17:40:24.784Z,61.62
2022-09-01T17:45:47.890Z,61.66
2022-09-01T17:51:20.303Z,62.06
2022-09-01T17:56:53.481Z,62.05
2022-09-01T18:02:10.228Z,62.61
2022-09-01T18:07:52.662Z,63.35
2022-09-01T18:13:10.855Z,63.32
2022-09-01T18:18:37.606Z,63.01
2022-09-01T18:23:44.235Z,63.12
2022-09-01T18:28:50.748Z,62.87
2022-09-01T18:34:37.143Z,63.47
2022-09-01T18:40:08.040Z,63.66
2022-09-01T18:45:45.428Z,63.50
2022-09-01T18:51:38.531Z,63.62
2022-09-01T18:57:01.128Z,63.69
2022-09-01T19:02:19.386Z,64.21
2022-09-01T19:07:43.947Z,64.13
2022-09-01T19:13:01.786Z,63.86
2022-09-01T19:18:39.205Z,63.89
2022-09-01T19:23:59.536Z,64.91
2022-09-01T19:29:13.883Z,65.54
2022-09-01T19:34:26.697Z,66.31
2022-09-01T19:39:41.464Z,67.04
2022-09-01T19:45:12.255Z,67.52
2022-09-01T19:50:36.110Z,68.29
2022-09-01T19:55:55.399Z,68.50
2022-09-01T20:01:03.446Z,69.23
2022-09-01T20:06:35.516Z,69.67
2022-09-01T20:11:54.424Z,69.95
2022-09-01T20:17:03.391Z,70.45
2022-09-01T20:22:42.051Z,70.51
2022-09-01T20:28:03.602Z,70.22
2022-09-01T20:33:38.149Z,70.13
2022-09-01T20:39:33.036Z,69.59
2022-09-01T20:44:59.651Z,67.98
2022-09-01T20:50:10.925Z,67.30
2022-09-01T20:55:25.113Z,67.11
2022-09-01T21:00:30.574Z,66.60
2022-09-01T21:05:39.969Z,66.22
2022-09-01T21:11:13.743Z,66.14
2022-09-01T21:16:43.340Z,65.97
2022-09-01T21:22:15.001Z,66.52
2022-09-01T21:27:26.533Z,66.72
2022-09-01T21:32:33.807Z,66.45
2022-09-01T21:37:36.745Z,66.00
2022-09-01T21:43:06.977Z,65.10
2022-09-01T21:48:10.064Z,64.12
2022-09-01T21:53:14.168Z,63.84
2022-09-01T21:58:17.200Z,64.21
2022-09-01T22:03:20.586Z,63.79
2022-09-01T22:08:23.570Z,64.37
2022-09-01T22:13:27.663Z,64.04
2022-09-01T22:18:30.791Z,64.18
2022-09-01T22:23:34.137Z,64.21
2022-09-01T22:28:37.337Z,63.29
2022-09-01T22:33:40.301Z,63.30
2022-09-01T22:38:43.208Z,64.15
2022-09-01T22:43:46.688Z,64.66
2022-09-01T22:48:50.214Z,64.30
2022-09-01T22:53:54.800Z,64.75
2022-09-01T22:59:04.052Z,64.53
2022-09-01T23:04:09.888Z,64.75
2022-09-01T23:09:14.132Z,63.29
2022-09-01T23:14:18.661Z,62.75
2022-09-01T23:19:23.191Z,62.57
2022-09-01T23:24:26.148Z,62.43
2022-09-01T23:29:29.148Z,62.64
2022-09-01T23:34:33.355Z,62.79
2022-09-01T23:39:36.666Z,62.69
2022-09-01T23:44:40.083Z,63.06
2022-09-01T23:49:43.260Z,61.73
2022-09-01T23:54:46.681Z,61.67
2022-09-01T23:59:49.579Z,61.59
